Terminal Aerodrome Forecast
Issued by NWS Lake Charles, LA

Current Version | Previous Version | Text Only | Print | Product List | Glossary On
Versions: 1 2 3 4 5 6 7 8 9 10 11 12 13 14 15 16 17
000
FTUS44 KLCH 260816 AAA
TAFAEX
TAF AMD
KAEX 260816Z 2608/2706 13006KT P6SM SCT025 SCT070
      TEMPO 2608/2612 BKN017
     FM261400 17008KT P6SM VCSH BKN025 BKN035
     FM261800 16009G14KT P6SM TSRA SCT025 BKN035CB
      TEMPO 2619/2623 P6SM -TSRA BKN050CB=

USA.gov is the U.S. government's official web portal to all federal, state and local government web resources and services.